Playas, New Mexico
Current Conditions -  °F | °C
As of 9:35 AM on Friday 24 Oct 2014 (Local Time) from KLSB Reporting Station
Clear Clear  
Wind Chill: 15°   Ceiling: Unl
Heat Index: 15°   Visibility: 10mi
Dew Point:   Wind: 0mph
Humidity: 63%   Direction: NA
Pressure: 30.28"   Gusts: NA
Location:  31.92°N, 108.53°W
Report Text: KLSB 241535Z AUTO 00000KT 10SM CLR 15/08 A3028 RMK AO2
Loading
Personal Weather Stations






























Interactive Weather Map
Tropical Storm Tracking
New forecast layout! Learn more

10-Day Weather Forecast

Advertisements
Track Severe Weather on mobile